JAC - Jackson Hole

Pirep is a free, collaborative database of all public and private airports located within the United States. All pilots are welcome to contribute, edit, and improve any airport they have local knowledge about, no registration required.
Are you familiar with this airport? Help out other pilots by adding your local knowledge.
Uploaded photos will be licensed under a CC BY-SA 4.0 license. Please only upload photos you have the rights to use.
Tags
Public
Undocu­mented
METAR / TAF
Edit Tags
Food
Camping
Lodging
Car Rental
Bicycles
Swimming
Golfing
Fishing
Hot Springs
Museum
Flying Clubs
Airpark
Upcoming Events
No upcoming events. Is anything happening here soon?
*
*
*

Where exactly on/near the airport is this event taking place?

Is there a webpage with more information for this event?

Who should be contacted for more information?

What is this event all about?

Repeat every
Description
Transient Parking
Fuel Location
Landing & Tie-down Fees
Crew Car Availability
Flying Clubs
WiFi Access
Airport Statistics
Location: Jackson, WY
Elevation: 6,450ft
Sectional: Salt Lake City
Activation date: Oct 1941
Fuel: 100LL, A (prices)
Runway 01/19: 6,300ft
Access: Open to the public
Current Weather — VFR
  • Weather data is strictly informational and not for flight planning purposes.
  • METAR
    2024-04-22 06:56:00 MDT
    Ceiling Wind Temperature Dewpoint Weather Visbility
    Sky clear Calm 32°F 17°F N/A 10SM
    Raw: KJAC 221256Z 00000KT 10SM CLR 00/M08 A3003 RMK AO2 SLP164 T00001078
  • TAF
    2024-04-22 06:00:00 MDT – 2024-04-22 09:00:00 MDT
    Ceiling Wind Weather Visbility
    Sky clear 220° @ 8kt N/A 6SM
    Clouds: Scattered @ 8,000ft
    Raw: KJAC 221120Z 2212/2312 22008KT P6SM SCT080 FM221500 21008KT P6SM FEW120 FM222000 24015G23KT P6SM FEW150 FM230200 19007KT P6SM FEW150
  • TAF
    2024-04-22 09:00:00 MDT – 2024-04-22 14:00:00 MDT
    Ceiling Wind Weather Visbility
    Sky clear 210° @ 8kt N/A 6SM
    Clouds: Few @ 12,000ft
    Raw: KJAC 221120Z 2212/2312 22008KT P6SM SCT080 FM221500 21008KT P6SM FEW120 FM222000 24015G23KT P6SM FEW150 FM230200 19007KT P6SM FEW150
  • TAF
    2024-04-22 14:00:00 MDT – 2024-04-22 20:00:00 MDT
    Ceiling Wind Weather Visbility
    Sky clear 240° @ 15kt, gusts 23kt N/A 6SM
    Clouds: Few @ 15,000ft
    Raw: KJAC 221120Z 2212/2312 22008KT P6SM SCT080 FM221500 21008KT P6SM FEW120 FM222000 24015G23KT P6SM FEW150 FM230200 19007KT P6SM FEW150
  • TAF
    2024-04-22 20:00:00 MDT – 2024-04-23 06:00:00 MDT
    Ceiling Wind Weather Visbility
    Sky clear 190° @ 7kt N/A 6SM
    Clouds: Few @ 15,000ft
    Raw: KJAC 221120Z 2212/2312 22008KT P6SM SCT080 FM221500 21008KT P6SM FEW120 FM222000 24015G23KT P6SM FEW150 FM230200 19007KT P6SM FEW150
Click/tap to add an annotation marker to the map
Airport Webcams
No webcams added yet.
Direct links to live image URLs will be displayed inline on this page. URLs to separate webpages will be linked to.
URL:
Direct links to live image URLs will be displayed inline on this page. URLs to separate webpages will be linked to.
URL:
Remarks
  • This airport has been surveyed by the national geodetic survey.
  • 35'-53' trees 700'-800' west of thr ry 01.
  • Noise abatement procedures in effect for acft departures on rwy 19.
  • Sage grouse on & invof arpt apr thru oct.
  • Possible severe winter conditions from nov-apr; no arpt info or snow removal guaranteed during hours of non attendance. 307-733-7682
Comments
Leave a comment What was your experience like at this airport?